createdAt,value
2022-11-25T00:01:23.517Z,3.25
2022-11-25T00:03:51.037Z,2.42
2022-11-25T00:06:19.919Z,2.95
2022-11-25T00:08:47.950Z,2.60
2022-11-25T00:11:15.511Z,3.00
2022-11-25T00:13:43.445Z,2.42
2022-11-25T00:16:11.728Z,2.25
2022-11-25T00:18:39.325Z,2.25
2022-11-25T00:21:11.209Z,2.72
2022-11-25T00:23:38.775Z,2.40
2022-11-25T00:26:13.307Z,2.30
2022-11-25T00:28:41.452Z,2.15
2022-11-25T00:31:09.712Z,2.30
2022-11-25T00:33:37.245Z,2.30
2022-11-25T00:36:05.430Z,2.00
2022-11-25T00:38:32.579Z,2.20
2022-11-25T00:41:18.194Z,2.13
2022-11-25T00:44:04.240Z,1.70
2022-11-25T00:46:31.383Z,1.95
2022-11-25T00:48:58.510Z,1.83
2022-11-25T00:51:25.710Z,1.70
2022-11-25T00:53:57.525Z,1.73
2022-11-25T00:56:26.106Z,2.17
2022-11-25T00:58:53.544Z,1.30
2022-11-25T01:01:20.742Z,1.65
2022-11-25T01:03:52.058Z,1.63
2022-11-25T01:06:19.274Z,1.52
2022-11-25T01:08:46.922Z,1.80
2022-11-25T01:11:15.194Z,1.70
2022-11-25T01:13:42.642Z,1.40
2022-11-25T01:16:11.481Z,1.60
2022-11-25T01:18:38.751Z,1.48
2022-11-25T01:21:10.220Z,1.70
2022-11-25T01:23:37.815Z,1.60
2022-11-25T01:26:06.830Z,1.55
2022-11-25T01:28:34.323Z,1.60
2022-11-25T01:31:02.372Z,1.30
2022-11-25T01:33:32.396Z,1.50
2022-11-25T01:36:03.258Z,1.40
2022-11-25T01:38:30.631Z,1.40
2022-11-25T01:40:57.775Z,1.52
2022-11-25T01:43:25.521Z,1.42
2022-11-25T01:45:53.288Z,1.30
2022-11-25T01:48:26.714Z,1.55
2022-11-25T01:50:54.483Z,1.15
2022-11-25T01:53:22.134Z,1.70
2022-11-25T01:55:52.843Z,1.30
2022-11-25T01:58:23.430Z,1.52
2022-11-25T02:00:53.606Z,1.45
2022-11-25T02:03:23.226Z,1.20
2022-11-25T02:06:12.244Z,1.15
2022-11-25T02:08:39.671Z,1.30
2022-11-25T02:11:06.943Z,1.00
2022-11-25T02:13:34.422Z,1.23
2022-11-25T02:16:01.598Z,1.40
2022-11-25T02:18:28.974Z,1.25
2022-11-25T02:20:56.404Z,2.42
2022-11-25T02:23:31.494Z,1.63
2022-11-25T02:25:58.641Z,1.95
2022-11-25T02:28:27.585Z,1.52
2022-11-25T02:30:54.923Z,1.50
2022-11-25T02:33:22.298Z,1.55
2022-11-25T02:35:53.197Z,1.30
2022-11-25T02:38:25.562Z,1.40
2022-11-25T02:41:17.150Z,1.20
2022-11-25T02:43:44.523Z,1.25
2022-11-25T02:46:22.521Z,1.33
2022-11-25T02:49:08.448Z,1.20
2022-11-25T02:51:36.495Z,1.20
2022-11-25T02:54:03.847Z,1.50
2022-11-25T02:56:32.484Z,1.23
2022-11-25T02:58:59.796Z,1.20
2022-11-25T03:01:27.266Z,1.33
2022-11-25T03:03:54.514Z,1.23
2022-11-25T03:06:21.637Z,1.40
2022-11-25T03:08:48.788Z,1.23
2022-11-25T03:11:15.957Z,1.17
2022-11-25T03:13:43.098Z,1.10
2022-11-25T03:16:10.408Z,1.05
2022-11-25T03:18:37.645Z,0.85
2022-11-25T03:21:04.869Z,1.20
2022-11-25T03:23:31.971Z,1.08
2022-11-25T03:25:59.143Z,1.35
2022-11-25T03:28:26.315Z,1.10
2022-11-25T03:30:53.394Z,0.80
2022-11-25T03:33:20.566Z,1.20
2022-11-25T03:35:49.315Z,1.10
2022-11-25T03:38:16.435Z,0.75
2022-11-25T03:40:43.614Z,1.10
2022-11-25T03:43:10.793Z,1.17
2022-11-25T03:45:37.932Z,1.08
2022-11-25T03:48:05.344Z,1.35
2022-11-25T03:50:32.503Z,1.30
2022-11-25T03:52:59.619Z,1.25
2022-11-25T03:55:26.784Z,1.27
2022-11-25T03:57:53.953Z,1.20
2022-11-25T04:00:21.100Z,1.10
2022-11-25T04:02:48.300Z,1.23
2022-11-25T04:05:15.423Z,1.00
2022-11-25T04:07:42.613Z,1.10
2022-11-25T04:10:10.075Z,1.20
2022-11-25T04:12:49.215Z,1.10
2022-11-25T04:15:17.031Z,1.05
2022-11-25T04:17:44.241Z,1.08
2022-11-25T04:20:12.790Z,0.95
2022-11-25T04:22:39.927Z,1.27
2022-11-25T04:25:07.385Z,1.00
2022-11-25T04:27:34.550Z,1.20
2022-11-25T04:30:01.669Z,1.95
2022-11-25T04:32:28.766Z,1.10
2022-11-25T04:34:55.908Z,1.40
2022-11-25T04:37:23.096Z,1.20
2022-11-25T04:39:50.371Z,1.63
2022-11-25T04:42:32.905Z,1.30
2022-11-25T04:45:22.004Z,1.70
2022-11-25T04:47:47.688Z,1.65
2022-11-25T04:50:17.042Z,1.50
2022-11-25T04:52:44.191Z,1.40
2022-11-25T04:55:11.330Z,1.58
2022-11-25T04:57:38.752Z,1.67
2022-11-25T05:00:06.659Z,2.05
2022-11-25T05:02:33.855Z,2.20
2022-11-25T05:05:01.153Z,2.15
2022-11-25T05:07:29.178Z,2.03
2022-11-25T05:09:56.760Z,2.05
2022-11-25T05:12:28.251Z,1.65
2022-11-25T05:14:55.624Z,1.40
2022-11-25T05:17:24.484Z,1.60
2022-11-25T05:19:52.177Z,1.30
2022-11-25T05:22:21.794Z,1.60
2022-11-25T05:24:48.977Z,1.38
2022-11-25T05:27:16.559Z,1.48
2022-11-25T05:29:43.879Z,1.70
2022-11-25T05:32:11.129Z,2.00
2022-11-25T05:34:39.062Z,1.92
2022-11-25T05:37:06.872Z,1.92
2022-11-25T05:39:34.413Z,2.00
2022-11-25T05:42:01.526Z,1.80
2022-11-25T05:44:28.653Z,1.80
2022-11-25T05:46:55.742Z,1.85
2022-11-25T05:49:23.151Z,2.30
2022-11-25T05:51:50.260Z,2.45
2022-11-25T05:54:17.384Z,2.10
2022-11-25T05:56:44.521Z,1.77
2022-11-25T05:59:11.668Z,1.92
2022-11-25T06:01:38.818Z,2.03
2022-11-25T06:04:06.344Z,2.45
2022-11-25T06:06:33.536Z,2.22
2022-11-25T06:09:01.101Z,2.60
2022-11-25T06:11:28.284Z,2.38
2022-11-25T06:13:57.534Z,2.15
2022-11-25T06:16:25.090Z,2.30
2022-11-25T06:18:52.298Z,1.85
2022-11-25T06:21:19.635Z,1.70
2022-11-25T06:23:47.146Z,1.80
2022-11-25T06:26:14.440Z,2.10
2022-11-25T06:28:41.618Z,1.63
2022-11-25T06:31:10.013Z,2.08
2022-11-25T06:33:37.274Z,2.20
2022-11-25T06:36:05.849Z,2.28
2022-11-25T06:38:33.181Z,2.20
2022-11-25T06:41:04.185Z,1.95
2022-11-25T06:43:31.735Z,2.40
2022-11-25T06:46:06.460Z,2.20
2022-11-25T06:48:34.034Z,2.22
2022-11-25T06:51:02.012Z,2.10
2022-11-25T06:53:29.215Z,1.70
2022-11-25T06:56:22.759Z,2.03
2022-11-25T06:58:50.365Z,2.10
2022-11-25T07:01:17.490Z,2.38
2022-11-25T07:03:45.352Z,2.00
2022-11-25T07:06:13.307Z,2.25
2022-11-25T07:08:40.551Z,2.13
2022-11-25T07:11:09.414Z,2.22
2022-11-25T07:13:36.591Z,2.30
2022-11-25T07:16:07.361Z,2.20
2022-11-25T07:18:35.728Z,1.95
2022-11-25T07:21:04.542Z,1.90
2022-11-25T07:23:31.877Z,1.90
2022-11-25T07:26:06.352Z,2.30
2022-11-25T07:28:33.593Z,3.45
2022-11-25T07:31:23.423Z,1.92
2022-11-25T07:33:54.938Z,1.75
2022-11-25T07:36:22.546Z,1.60
2022-11-25T07:38:49.724Z,1.40
2022-11-25T07:41:21.544Z,1.85
2022-11-25T07:43:49.440Z,1.77
2022-11-25T07:46:16.792Z,1.60
2022-11-25T07:48:44.420Z,1.73
2022-11-25T07:51:21.951Z,1.63
2022-11-25T07:53:49.556Z,1.75
2022-11-25T07:56:17.339Z,1.60
2022-11-25T07:58:46.175Z,1.90
2022-11-25T08:01:14.263Z,2.10
2022-11-25T08:03:42.051Z,2.25
2022-11-25T08:06:13.782Z,1.90
2022-11-25T08:08:41.919Z,1.85
2022-11-25T08:11:10.163Z,1.45
2022-11-25T08:13:37.343Z,1.90
2022-11-25T08:16:05.420Z,1.80
2022-11-25T08:18:32.731Z,1.80
2022-11-25T08:21:00.671Z,1.85
2022-11-25T08:23:28.272Z,2.13
2022-11-25T08:25:55.462Z,2.22
2022-11-25T08:28:22.698Z,1.98
2022-11-25T08:30:49.926Z,2.00
2022-11-25T08:33:17.322Z,2.08
2022-11-25T08:35:44.437Z,2.13
2022-11-25T08:38:12.137Z,1.65
2022-11-25T08:40:39.367Z,1.90
2022-11-25T08:43:06.482Z,2.15
2022-11-25T08:45:35.008Z,2.40
2022-11-25T08:48:02.121Z,2.28
2022-11-25T08:50:29.251Z,2.13
2022-11-25T08:52:57.559Z,2.20
2022-11-25T08:55:26.381Z,2.10
2022-11-25T08:57:54.572Z,2.15
2022-11-25T09:00:22.292Z,2.15
2022-11-25T09:02:49.872Z,2.60
2022-11-25T09:05:17.715Z,2.00
2022-11-25T09:07:44.922Z,2.63
2022-11-25T09:10:14.610Z,1.58
2022-11-25T09:12:41.772Z,1.90
2022-11-25T09:15:09.256Z,1.70
2022-11-25T09:17:37.407Z,1.92
2022-11-25T09:20:07.572Z,1.90
2022-11-25T09:22:34.722Z,1.80
2022-11-25T09:25:01.854Z,1.85
2022-11-25T09:27:28.982Z,1.92
2022-11-25T09:29:56.102Z,1.95
2022-11-25T09:32:23.219Z,1.33
2022-11-25T09:34:50.363Z,1.85
2022-11-25T09:37:17.477Z,1.80
2022-11-25T09:39:44.610Z,1.80
2022-11-25T09:42:41.988Z,1.40
2022-11-25T09:45:36.644Z,2.10
2022-11-25T09:48:03.716Z,1.70
2022-11-25T09:50:33.627Z,1.60
2022-11-25T09:53:08.809Z,1.90
2022-11-25T09:55:39.210Z,1.75
2022-11-25T09:58:30.767Z,2.20
2022-11-25T10:00:58.192Z,2.60
2022-11-25T10:03:33.515Z,1.90
2022-11-25T10:06:00.830Z,2.17
2022-11-25T10:08:29.811Z,2.00
2022-11-25T10:11:00.796Z,2.00
2022-11-25T10:13:40.089Z,2.10
2022-11-25T10:16:08.516Z,1.88
2022-11-25T10:18:40.268Z,2.15
2022-11-25T10:21:09.388Z,1.83
2022-11-25T10:23:37.206Z,1.95
2022-11-25T10:26:14.714Z,1.70
2022-11-25T10:28:47.248Z,1.85
2022-11-25T10:31:18.232Z,1.60
2022-11-25T10:33:45.367Z,1.70
2022-11-25T10:36:19.794Z,1.70
2022-11-25T10:38:55.747Z,1.80
2022-11-25T10:41:24.249Z,1.83
2022-11-25T10:43:51.586Z,1.77
2022-11-25T10:46:30.887Z,2.35
2022-11-25T10:49:19.499Z,1.40
2022-11-25T10:51:46.625Z,1.80
2022-11-25T10:54:27.572Z,1.40
2022-11-25T10:57:02.362Z,1.67
2022-11-25T10:59:33.343Z,1.60
2022-11-25T11:02:19.387Z,1.33
2022-11-25T11:05:09.362Z,1.73
2022-11-25T11:07:38.407Z,1.50
2022-11-25T11:10:22.559Z,1.42
2022-11-25T11:12:56.506Z,1.45
2022-11-25T11:15:26.657Z,1.40
2022-11-25T11:17:54.578Z,1.15
2022-11-25T11:20:25.979Z,1.30
2022-11-25T11:22:58.368Z,1.85
2022-11-25T11:25:27.709Z,1.50
2022-11-25T11:27:55.784Z,1.52
2022-11-25T11:30:25.048Z,1.27
2022-11-25T11:32:57.907Z,1.33
2022-11-25T11:35:31.098Z,1.50
2022-11-25T11:38:08.085Z,1.42
2022-11-25T11:40:46.485Z,1.38
2022-11-25T11:43:13.615Z,1.30
2022-11-25T11:45:56.309Z,1.10
2022-11-25T11:48:30.725Z,1.25
2022-11-25T11:50:57.838Z,1.10
2022-11-25T11:53:36.963Z,1.20
2022-11-25T11:58:57.690Z,1.13
2022-11-25T12:01:41.999Z,1.50
2022-11-25T12:04:19.001Z,1.33
2022-11-25T12:06:56.823Z,0.90
2022-11-25T12:09:24.469Z,1.20
2022-11-25T12:11:54.322Z,1.08
2022-11-25T12:14:40.294Z,1.10
2022-11-25T12:17:12.630Z,1.27
2022-11-25T12:19:58.457Z,1.48
2022-11-25T12:22:27.795Z,1.17
2022-11-25T12:24:57.627Z,1.00
2022-11-25T12:27:30.395Z,1.08
2022-11-25T12:30:08.293Z,0.90
2022-11-25T12:32:52.295Z,0.80
2022-11-25T12:35:38.310Z,1.00
2022-11-25T12:38:05.501Z,1.00
2022-11-25T12:40:51.460Z,1.15
2022-11-25T12:43:18.571Z,1.10
2022-11-25T12:45:47.277Z,1.17
2022-11-25T12:48:18.605Z,1.33
2022-11-25T12:51:03.607Z,1.10
2022-11-25T12:53:45.140Z,0.98
2022-11-25T12:56:16.806Z,1.17
2022-11-25T12:59:02.378Z,1.17
2022-11-25T13:02:02.459Z,1.13
2022-11-25T13:04:41.888Z,0.90
2022-11-25T13:07:11.840Z,1.02
2022-11-25T13:09:48.054Z,1.20
2022-11-25T13:12:35.761Z,1.40
2022-11-25T13:15:22.567Z,1.20
2022-11-25T13:17:51.165Z,1.33
2022-11-25T13:20:27.247Z,1.10
2022-11-25T13:23:03.344Z,1.35
2022-11-25T13:25:30.470Z,0.90
2022-11-25T13:27:58.916Z,1.20
2022-11-25T13:30:35.215Z,1.20
2022-11-25T13:33:14.402Z,1.13
2022-11-25T13:35:44.579Z,1.42
2022-11-25T13:38:30.187Z,2.25
2022-11-25T13:41:01.656Z,1.52
2022-11-25T13:43:29.031Z,1.45
2022-11-25T13:45:56.726Z,1.10
2022-11-25T13:48:30.839Z,1.10
2022-11-25T13:51:15.777Z,1.38
2022-11-25T13:53:49.685Z,1.00
2022-11-25T13:56:26.227Z,1.45
2022-11-25T13:59:17.067Z,1.40
2022-11-25T14:01:47.274Z,1.67
2022-11-25T14:04:17.482Z,1.60
2022-11-25T14:06:52.475Z,1.50
2022-11-25T14:12:02.446Z,1.60
2022-11-25T14:14:50.147Z,1.80
2022-11-25T14:17:37.782Z,1.70
2022-11-25T14:20:23.743Z,1.80
2022-11-25T14:23:00.019Z,1.77
2022-11-25T14:25:30.279Z,1.52
2022-11-25T14:28:03.880Z,2.03
2022-11-25T14:30:32.257Z,1.45
2022-11-25T14:33:10.797Z,1.83
2022-11-25T14:35:45.346Z,1.50
2022-11-25T14:38:12.790Z,1.30
2022-11-25T14:40:50.280Z,1.83
2022-11-25T14:43:22.618Z,1.80
2022-11-25T14:46:09.381Z,1.95
2022-11-25T14:48:36.712Z,1.60
2022-11-25T14:51:08.094Z,1.70
2022-11-25T14:53:47.846Z,1.65
2022-11-25T14:56:16.985Z,1.63
2022-11-25T14:58:51.336Z,1.67
2022-11-25T15:01:20.068Z,1.77
2022-11-25T15:03:48.383Z,1.48
2022-11-25T15:06:16.247Z,3.10
2022-11-25T15:08:55.221Z,1.88
2022-11-25T15:11:24.666Z,1.73
2022-11-25T15:13:56.096Z,2.20
2022-11-25T15:16:24.564Z,2.15
2022-11-25T15:18:53.405Z,2.22
2022-11-25T15:21:22.643Z,2.75
2022-11-25T15:23:49.983Z,3.45
2022-11-25T15:26:19.422Z,2.67
2022-11-25T15:28:47.143Z,2.67
2022-11-25T15:31:18.717Z,2.45
2022-11-25T15:33:46.252Z,2.40
2022-11-25T15:36:13.453Z,3.00
2022-11-25T15:38:44.781Z,2.20
2022-11-25T15:41:30.898Z,3.05
2022-11-25T15:43:58.860Z,1.95
2022-11-25T15:46:26.432Z,2.10
2022-11-25T15:48:56.578Z,2.35
2022-11-25T15:51:30.012Z,1.92
2022-11-25T15:54:01.310Z,2.40
2022-11-25T15:56:28.785Z,2.70
2022-11-25T15:59:01.281Z,2.58
2022-11-25T16:01:29.751Z,2.40
2022-11-25T16:04:10.148Z,2.40
2022-11-25T16:06:37.287Z,3.10
2022-11-25T16:09:05.735Z,2.78
2022-11-25T16:11:45.379Z,3.17
2022-11-25T16:14:23.649Z,2.47
2022-11-25T16:16:50.943Z,2.38
2022-11-25T16:19:19.557Z,2.22
2022-11-25T16:21:52.233Z,2.03
2022-11-25T16:24:25.355Z,2.00
2022-11-25T16:27:00.290Z,2.20
2022-11-25T16:31:54.546Z,1.77
2022-11-25T16:34:24.236Z,2.10
2022-11-25T16:36:51.404Z,2.30
2022-11-25T16:39:18.625Z,2.20
2022-11-25T16:41:54.714Z,3.03
2022-11-25T16:44:23.377Z,2.25
2022-11-25T16:46:51.148Z,2.50
2022-11-25T16:49:19.199Z,3.38
2022-11-25T16:51:46.407Z,2.35
2022-11-25T16:54:13.576Z,2.92
2022-11-25T16:56:42.076Z,2.50
2022-11-25T16:59:18.902Z,2.42
2022-11-25T17:01:46.883Z,4.78
2022-11-25T17:04:15.051Z,2.97
2022-11-25T17:06:43.170Z,3.53
2022-11-25T17:09:10.896Z,2.75
2022-11-25T17:11:46.161Z,3.03
2022-11-25T17:14:23.937Z,3.10
2022-11-25T17:16:51.432Z,2.78
2022-11-25T17:19:18.736Z,3.58
2022-11-25T17:21:46.111Z,3.33
2022-11-25T17:24:17.868Z,3.50
2022-11-25T17:26:46.491Z,4.40
2022-11-25T17:29:15.850Z,3.45
2022-11-25T17:31:43.441Z,3.38
2022-11-25T17:34:14.105Z,3.90
2022-11-25T17:36:41.210Z,3.17
2022-11-25T17:39:09.339Z,4.00
2022-11-25T17:41:39.926Z,3.72
2022-11-25T17:44:07.266Z,3.78
2022-11-25T17:46:34.398Z,3.47
2022-11-25T17:49:01.558Z,3.40
2022-11-25T17:51:28.685Z,3.60
2022-11-25T17:53:55.790Z,3.83
2022-11-25T17:56:25.314Z,4.07
2022-11-25T17:58:53.089Z,4.68
2022-11-25T18:01:20.514Z,4.68
2022-11-25T18:03:50.664Z,4.47
2022-11-25T18:06:17.780Z,4.47
2022-11-25T18:08:44.915Z,4.70
2022-11-25T18:11:15.117Z,3.90
2022-11-25T18:13:42.587Z,4.90
2022-11-25T18:16:10.443Z,4.90
2022-11-25T18:18:37.633Z,5.05
2022-11-25T18:21:04.947Z,7.53
2022-11-25T18:23:32.179Z,5.53
2022-11-25T18:26:01.268Z,5.57
2022-11-25T18:28:30.335Z,5.13
2022-11-25T18:30:59.321Z,4.10
2022-11-25T18:33:26.454Z,3.72
2022-11-25T18:35:53.614Z,3.80
2022-11-25T18:38:20.785Z,3.08
2022-11-25T18:40:53.296Z,4.10
2022-11-25T18:43:25.519Z,4.30
2022-11-25T18:45:54.148Z,3.53
2022-11-25T18:48:26.254Z,3.78
2022-11-25T18:50:54.846Z,3.45
2022-11-25T18:53:22.005Z,3.65
2022-11-25T18:55:49.400Z,3.25
2022-11-25T18:58:20.569Z,3.88
2022-11-25T19:00:48.811Z,4.43
2022-11-25T19:03:20.753Z,3.58
2022-11-25T19:05:48.270Z,3.95
2022-11-25T19:08:15.830Z,4.03
2022-11-25T19:10:44.269Z,3.92
2022-11-25T19:13:20.072Z,3.53
2022-11-25T19:15:47.698Z,3.90
2022-11-25T19:18:16.637Z,5.38
2022-11-25T19:20:43.830Z,8.13
2022-11-25T19:23:17.491Z,4.93
2022-11-25T19:25:45.347Z,3.92
2022-11-25T19:28:13.416Z,4.60
2022-11-25T19:30:40.661Z,4.25
2022-11-25T19:33:10.702Z,4.20
2022-11-25T19:35:38.291Z,4.28
2022-11-25T19:38:21.470Z,4.95
2022-11-25T19:40:49.610Z,4.90
2022-11-25T19:43:16.699Z,7.63
2022-11-25T19:45:44.724Z,5.10
2022-11-25T19:48:14.011Z,4.70
2022-11-25T19:50:41.577Z,5.25
2022-11-25T19:53:12.523Z,4.53
2022-11-25T19:55:39.695Z,4.32
2022-11-25T19:58:06.955Z,4.57
2022-11-25T20:00:35.057Z,4.60
2022-11-25T20:03:02.517Z,4.65
2022-11-25T20:05:34.042Z,5.07
2022-11-25T20:08:01.437Z,4.70
2022-11-25T20:10:30.225Z,5.53
2022-11-25T20:12:57.663Z,4.65
2022-11-25T20:15:24.832Z,5.07
2022-11-25T20:17:54.125Z,4.68
2022-11-25T20:20:32.671Z,4.28
2022-11-25T20:22:59.952Z,4.60
2022-11-25T20:25:27.384Z,4.50
2022-11-25T20:27:54.757Z,4.85
2022-11-25T20:30:26.457Z,4.70
2022-11-25T20:32:54.007Z,4.63
2022-11-25T20:35:21.964Z,4.63
2022-11-25T20:37:58.016Z,5.45
2022-11-25T20:40:26.424Z,4.60
2022-11-25T20:42:53.933Z,5.07
2022-11-25T20:45:22.198Z,5.63
2022-11-25T20:47:50.944Z,4.95
2022-11-25T20:50:19.437Z,5.70
2022-11-25T20:52:47.575Z,4.93
2022-11-25T20:55:14.884Z,4.97
2022-11-25T20:57:42.011Z,4.82
2022-11-25T21:00:28.314Z,4.90
2022-11-25T21:02:57.268Z,4.10
2022-11-25T21:05:25.259Z,4.60
2022-11-25T21:07:52.577Z,4.95
2022-11-25T21:10:27.893Z,4.03
2022-11-25T21:12:55.806Z,4.55
2022-11-25T21:15:24.589Z,4.38
2022-11-25T21:17:52.228Z,4.55
2022-11-25T21:20:20.276Z,4.35
2022-11-25T21:22:49.486Z,4.15
2022-11-25T21:25:18.687Z,4.45
2022-11-25T21:27:47.036Z,4.50
2022-11-25T21:30:18.381Z,4.60
2022-11-25T21:32:45.906Z,3.97
2022-11-25T21:35:13.788Z,4.55
2022-11-25T21:37:41.786Z,4.93
2022-11-25T21:40:17.191Z,5.10
2022-11-25T21:42:44.361Z,4.95
2022-11-25T21:45:14.085Z,4.68
2022-11-25T21:47:41.222Z,4.68
2022-11-25T21:50:18.754Z,4.70
2022-11-25T21:52:45.859Z,5.35
2022-11-25T21:55:13.915Z,5.13
2022-11-25T21:57:41.568Z,4.60
2022-11-25T22:00:20.059Z,4.63
2022-11-25T22:02:47.227Z,4.97
2022-11-25T22:05:15.772Z,4.97
2022-11-25T22:07:43.030Z,4.75
2022-11-25T22:10:10.461Z,5.50
2022-11-25T22:12:41.495Z,5.65
2022-11-25T22:15:19.650Z,6.10
2022-11-25T22:17:47.130Z,4.93
2022-11-25T22:20:28.340Z,5.63
2022-11-25T22:22:56.054Z,5.38
2022-11-25T22:25:23.829Z,5.20
2022-11-25T22:27:51.203Z,4.85
2022-11-25T22:30:19.454Z,4.45
2022-11-25T22:32:47.668Z,5.18
2022-11-25T22:35:19.226Z,4.93
2022-11-25T22:37:51.935Z,5.25
2022-11-25T22:40:22.132Z,5.55
2022-11-25T22:42:50.504Z,4.65
2022-11-25T22:45:24.753Z,5.22
2022-11-25T22:47:52.100Z,4.75
2022-11-25T22:50:28.644Z,5.13
2022-11-25T22:52:56.797Z,5.10
2022-11-25T22:55:26.914Z,5.05
2022-11-25T22:57:55.698Z,5.90
2022-11-25T23:00:22.853Z,5.43
2022-11-25T23:02:50.576Z,4.95
2022-11-25T23:05:33.296Z,5.07
2022-11-25T23:08:01.462Z,5.30
2022-11-25T23:10:29.808Z,4.80
2022-11-25T23:12:56.939Z,4.80
2022-11-25T23:15:24.741Z,5.18
2022-11-25T23:17:54.142Z,5.20
2022-11-25T23:20:23.312Z,5.10
2022-11-25T23:22:50.482Z,4.53
2022-11-25T23:25:19.452Z,5.43
2022-11-25T23:27:46.639Z,5.85
2022-11-25T23:30:18.498Z,4.72
2022-11-25T23:32:46.112Z,5.75
2022-11-25T23:35:14.568Z,4.93
2022-11-25T23:37:41.757Z,5.20
2022-11-25T23:40:14.793Z,4.68
2022-11-25T23:42:41.915Z,4.70
2022-11-25T23:45:10.570Z,4.90
2022-11-25T23:47:37.749Z,4.47
2022-11-25T23:50:05.304Z,4.95
2022-11-25T23:52:32.490Z,4.78
2022-11-25T23:54:59.654Z,4.78
2022-11-25T23:57:33.919Z,4.97
